Hlavní strana
METAR-TAF:

METAR-TAF

Letiště :

Hammerfest, Norsko

zeměpisná šířka: 70-40N, zeměpisná délka: 023-40E, výška: 8 m

Aktuální stav počasí

Zpráva byla vytvořena před 24 minutami, v 05:20 UTC
Jihozápadní vítr 8 kt
Teplota -4°C
Vlhkost vzduchu 74%
Tlak 990 hPa
Viditelnost 10 km a více
Skoro jasno ve výšce 2300 ft
Oblačno až skoro zataženo ve výšce 3600 ft

METAR: ENHF 290520Z 23008KT 9999 FEW023 BKN036 M04/M08 Q0990 RMK WIND 1254FT 24013KT

Čas: 06:44 (05:44 UTC)

Předpověď počasí

Zpráva byla vytvořena před 3 hodinami a 44 minutami, v 02:00 UTC
Předpověď platná od 29 v 03 UTC do 29 v 12 UTC
Západojihozápadní vítr 8 kt
Viditelnost 10 km a více
Skoro jasno ve výšce 2000 ft
Polojasno ve výšce 4000 ft
Dočasný
od 29 v 08 UTC do 29 v 12 UTC
Viditelnost: 0800 m
ve výšce 800 ft
sněhové přeháňky

TAF: ENHF 290200Z 2903/2912 24008KT 9999 FEW020 SCT040 TEMPO 2908/2912 0800 SHSN VV008

Stav a předpovědi počasí z více než 4 000 letišť (zprávy METAR a TAF).

Červené a žluté tečky na mapě představují dostupné meteorologické stanice.

Když kurzor umístíte na tečku, zobrazí se název stanice.

Pak kliknutím zobrazíte stav a předpověď počasí.

Chcete-li změnit mapu, kliknutím na zelené tlačítko se znaménkem +mapu přiblížíte, kliknutím na zelené tlačítko se znaménkem – mapu oddálíte a kliknutím na zelené šipky přejdete na sousední mapy.


METAR-TAF: